createdAt,value
2018-03-01T19:59:13.751Z,101073.61
2018-03-01T20:02:22.748Z,101069.52
2018-03-01T20:05:39.434Z,101074.91
2018-03-01T20:08:55.857Z,101074.14
2018-03-01T20:12:05.020Z,101066.59
2018-03-01T20:15:25.216Z,101055.19
2018-03-01T20:18:39.269Z,101054.77
2018-03-01T20:21:51.515Z,101052.77
2018-03-01T20:25:19.646Z,101053.52
2018-03-01T20:28:41.416Z,101058.06
2018-03-01T20:31:58.151Z,101058.84
2018-03-01T20:35:22.569Z,101054.16
2018-03-01T20:38:39.987Z,101057.77
2018-03-01T20:41:59.723Z,101049.89
2018-03-01T20:45:21.352Z,101042.76
2018-03-01T20:48:41.470Z,101033.02
2018-03-01T20:52:06.839Z,101037.12
2018-03-01T20:55:36.573Z,101039.18
2018-03-01T20:58:54.597Z,101037.81
2018-03-01T21:02:17.242Z,101038.99
2018-03-01T21:05:45.083Z,101030.98
2018-03-01T21:09:15.118Z,101021.30
2018-03-01T21:12:31.105Z,101015.43
2018-03-01T21:15:38.147Z,101016.28
2018-03-01T21:18:43.667Z,101010.38
2018-03-01T21:21:49.267Z,101009.95
2018-03-01T21:24:55.042Z,101004.90
2018-03-01T21:28:00.589Z,101001.45
2018-03-01T21:31:05.899Z,101002.70
2018-03-01T21:34:11.498Z,100992.64
2018-03-01T21:37:18.109Z,100994.62
2018-03-01T21:40:23.766Z,100991.19
2018-03-01T21:43:45.374Z,100991.50
2018-03-01T21:47:29.577Z,100986.93
2018-03-01T21:51:00.812Z,100979.75
2018-03-01T21:54:32.225Z,100978.52
2018-03-01T21:58:08.103Z,100976.33
2018-03-01T22:01:38.617Z,100967.52
2018-03-01T22:04:53.505Z,100966.22
2018-03-01T22:08:00.418Z,100964.95
2018-03-01T22:11:05.961Z,100952.30
2018-03-01T22:14:11.490Z,100950.19
2018-03-01T22:17:16.830Z,100950.13
2018-03-01T22:20:22.338Z,100937.16
2018-03-01T22:23:27.762Z,100938.84
2018-03-01T22:26:33.289Z,100931.48
2018-03-01T22:29:38.853Z,100926.61
2018-03-01T22:32:44.372Z,100928.28
2018-03-01T22:35:49.967Z,100923.64
2018-03-01T22:38:55.479Z,100925.65
2018-03-01T22:42:01.081Z,100917.30
2018-03-01T22:45:06.614Z,100925.55
2018-03-01T22:48:12.305Z,100915.12
2018-03-01T22:51:17.868Z,100909.31
2018-03-01T22:54:23.450Z,100905.95
2018-03-01T22:57:29.035Z,100908.72
2018-03-01T23:00:45.344Z,100910.86
2018-03-01T23:03:50.697Z,100910.83
2018-03-01T23:06:56.634Z,100907.02
2018-03-01T23:10:01.969Z,100909.13
2018-03-01T23:13:07.657Z,100910.23
2018-03-01T23:16:13.170Z,100910.17
2018-03-01T23:19:18.792Z,100904.72
2018-03-01T23:22:24.069Z,100906.66
2018-03-01T23:25:29.619Z,100909.98
2018-03-01T23:28:35.159Z,100911.27
2018-03-01T23:31:41.052Z,100904.54
2018-03-01T23:34:46.336Z,100903.62
2018-03-01T23:37:51.922Z,100900.38
2018-03-01T23:40:57.515Z,100894.45
2018-03-01T23:44:02.774Z,100889.69
2018-03-01T23:47:08.389Z,100885.16
2018-03-01T23:50:14.141Z,100883.39
2018-03-01T23:53:19.674Z,100883.17
2018-03-01T23:56:25.234Z,100877.67
2018-03-01T23:59:30.792Z,100871.16
